createdAt,value
2023-03-23T15:58:04.936Z,998.17
2023-03-23T16:01:05.375Z,998.22
2023-03-23T16:04:12.871Z,998.35
2023-03-23T16:07:20.340Z,998.39
2023-03-23T16:10:29.452Z,998.46
2023-03-23T16:13:37.037Z,998.11
2023-03-23T16:16:44.281Z,998.16
2023-03-23T16:19:53.552Z,998.05
2023-03-23T16:23:00.852Z,998.01
2023-03-23T16:26:08.029Z,997.99
2023-03-23T16:29:33.752Z,997.78
2023-03-23T16:32:22.288Z,997.76
2023-03-23T16:35:29.484Z,997.73
2023-03-23T16:38:49.939Z,997.80
2023-03-23T16:41:43.498Z,997.92
2023-03-23T16:44:50.987Z,997.80
2023-03-23T16:47:58.902Z,997.82
2023-03-23T16:51:07.334Z,997.78
2023-03-23T16:54:15.165Z,997.71
2023-03-23T16:57:22.597Z,997.70
2023-03-23T17:00:32.004Z,997.69
2023-03-23T17:03:40.698Z,997.64
2023-03-23T17:06:39.027Z,997.67
2023-03-23T17:09:47.928Z,997.69
2023-03-23T17:12:55.694Z,997.65
2023-03-23T17:16:03.245Z,997.76
2023-03-23T17:19:10.745Z,997.91
2023-03-23T17:22:19.692Z,997.76
2023-03-23T17:25:27.319Z,997.81
2023-03-23T17:28:35.361Z,997.84
2023-03-23T17:31:43.851Z,997.88
2023-03-23T17:34:51.572Z,997.88
2023-03-23T17:37:59.454Z,997.99
2023-03-23T17:41:08.143Z,998.10
2023-03-23T17:44:15.840Z,998.04
2023-03-23T17:47:23.583Z,998.09
2023-03-23T17:50:32.148Z,998.03
2023-03-23T17:53:39.993Z,998.04
2023-03-23T17:56:47.902Z,998.00
2023-03-23T17:59:55.233Z,997.92
2023-03-23T18:03:04.801Z,997.92
2023-03-23T18:06:12.229Z,998.01
2023-03-23T18:09:19.789Z,997.95
2023-03-23T18:12:29.517Z,998.00
2023-03-23T18:15:37.307Z,998.15
2023-03-23T18:18:45.100Z,998.17
2023-03-23T18:21:54.101Z,998.25
2023-03-23T18:25:01.626Z,998.36
2023-03-23T18:28:09.342Z,998.46
2023-03-23T18:31:19.572Z,998.64
2023-03-23T18:34:27.197Z,998.61
2023-03-23T18:37:36.979Z,998.61
2023-03-23T18:40:44.750Z,998.65
2023-03-23T18:43:55.688Z,998.64
2023-03-23T18:47:04.625Z,998.60
2023-03-23T18:50:12.318Z,998.63
2023-03-23T18:53:21.830Z,998.60
2023-03-23T18:56:29.314Z,998.63
2023-03-23T18:59:36.602Z,998.67
2023-03-23T19:02:46.170Z,998.59
2023-03-23T19:05:48.775Z,998.53
2023-03-23T19:08:56.698Z,998.49
2023-03-23T19:12:06.717Z,998.53
2023-03-23T19:15:14.628Z,998.53
2023-03-23T19:18:22.298Z,998.56
2023-03-23T19:21:32.636Z,998.61
2023-03-23T19:24:40.596Z,998.39
2023-03-23T19:28:33.715Z,998.44
2023-03-23T19:30:52.550Z,998.42
2023-03-23T19:34:01.770Z,998.32
2023-03-23T19:37:11.473Z,998.32
2023-03-23T19:40:37.324Z,998.31
2023-03-23T19:43:26.582Z,998.26
2023-03-23T19:46:35.380Z,998.25
2023-03-23T19:49:43.548Z,997.99
2023-03-23T19:52:52.838Z,998.12
2023-03-23T19:56:00.642Z,998.13
2023-03-23T19:59:08.919Z,998.07
2023-03-23T20:02:18.345Z,998.02
2023-03-23T20:05:25.705Z,997.97
2023-03-23T20:08:33.376Z,997.91
2023-03-23T20:11:40.938Z,997.97
2023-03-23T20:14:49.775Z,997.91
2023-03-23T20:17:58.406Z,997.92
2023-03-23T20:21:06.726Z,997.88
2023-03-23T20:24:16.070Z,997.78
2023-03-23T20:27:23.287Z,997.72
2023-03-23T20:30:31.181Z,997.76
2023-03-23T20:33:40.433Z,997.74
2023-03-23T20:36:47.580Z,997.72
2023-03-23T20:39:55.505Z,997.76
2023-03-23T20:43:04.151Z,997.65
2023-03-23T20:46:12.506Z,997.68
2023-03-23T20:49:20.108Z,997.65
2023-03-23T20:52:27.315Z,997.60
2023-03-23T20:55:36.570Z,997.66
2023-03-23T20:58:44.130Z,997.69
2023-03-23T21:01:51.843Z,997.64
2023-03-23T21:05:00.944Z,997.69
2023-03-23T21:08:08.066Z,997.71
2023-03-23T21:11:16.305Z,997.73
2023-03-23T21:14:25.528Z,997.68
2023-03-23T21:17:32.835Z,997.69
2023-03-23T21:20:40.993Z,997.63
2023-03-23T21:23:50.009Z,997.66
2023-03-23T21:26:57.749Z,997.57
2023-03-23T21:30:05.963Z,997.60
2023-03-23T21:33:13.479Z,997.52
2023-03-23T21:36:22.538Z,997.46
2023-03-23T21:39:30.406Z,997.42
2023-03-23T21:42:38.157Z,997.39
2023-03-23T21:45:47.132Z,997.30
2023-03-23T21:48:55.110Z,997.18
2023-03-23T21:52:02.702Z,997.26
2023-03-23T21:55:11.621Z,997.25
2023-03-23T21:58:19.216Z,997.16
2023-03-23T22:01:27.263Z,997.19
2023-03-23T22:04:36.239Z,997.10
2023-03-23T22:07:43.828Z,997.09
2023-03-23T22:11:00.971Z,997.14
2023-03-23T22:13:56.390Z,997.10
2023-03-23T22:17:05.564Z,997.03
2023-03-23T22:20:13.571Z,996.99
2023-03-23T22:23:20.969Z,996.96
2023-03-23T22:26:30.442Z,996.87
2023-03-23T22:29:38.497Z,996.83
2023-03-23T22:32:45.884Z,996.75
2023-03-23T22:35:55.408Z,996.75
2023-03-23T22:39:03.238Z,996.55
2023-03-23T22:42:12.369Z,996.63
2023-03-23T22:45:12.087Z,996.59
2023-03-23T22:48:19.887Z,996.50
2023-03-23T22:51:27.743Z,996.52
2023-03-23T22:54:35.799Z,996.45
2023-03-23T22:57:44.676Z,996.46
2023-03-23T23:00:52.457Z,996.42
2023-03-23T23:04:00.470Z,996.43
2023-03-23T23:07:12.829Z,996.36
2023-03-23T23:10:10.073Z,996.35
2023-03-23T23:13:17.828Z,996.27
2023-03-23T23:16:27.291Z,996.17
2023-03-23T23:19:35.041Z,996.17
2023-03-23T23:22:43.866Z,996.16
2023-03-23T23:25:43.468Z,996.12
2023-03-23T23:28:51.046Z,995.96
2023-03-23T23:31:58.172Z,995.97
2023-03-23T23:35:05.844Z,995.95
2023-03-23T23:38:14.444Z,995.84
2023-03-23T23:41:22.408Z,995.77
2023-03-23T23:44:30.582Z,995.81
2023-03-23T23:47:39.430Z,995.71
2023-03-23T23:50:47.754Z,995.68
2023-03-23T23:53:56.015Z,995.66
2023-03-23T23:57:04.748Z,995.55
